createdAt,value
2023-03-11T00:01:20.166Z,4.00
2023-03-11T00:03:47.655Z,5.43
2023-03-11T00:06:15.130Z,3.60
2023-03-11T00:08:42.738Z,3.63
2023-03-11T00:11:10.165Z,3.80
2023-03-11T00:13:38.002Z,5.50
2023-03-11T00:16:05.946Z,3.43
2023-03-11T00:18:33.616Z,3.70
2023-03-11T00:21:01.379Z,4.33
2023-03-11T00:23:29.366Z,4.33
2023-03-11T00:25:57.043Z,3.83
2023-03-11T00:28:26.783Z,3.97
2023-03-11T00:30:55.260Z,4.53
2023-03-11T00:33:23.413Z,3.67
2023-03-11T00:35:51.395Z,4.47
2023-03-11T00:38:20.690Z,4.33
2023-03-11T00:40:48.704Z,4.33
2023-03-11T00:43:16.919Z,4.40
2023-03-11T00:45:44.892Z,4.40
2023-03-11T00:48:13.919Z,4.20
2023-03-11T00:50:42.430Z,4.33
2023-03-11T00:53:10.572Z,4.57
2023-03-11T00:55:38.232Z,4.30
2023-03-11T00:58:08.952Z,4.77
2023-03-11T01:00:41.689Z,4.03
2023-03-11T01:03:09.871Z,4.90
2023-03-11T01:05:37.453Z,4.33
2023-03-11T01:08:05.631Z,3.97
2023-03-11T01:10:34.562Z,4.70
2023-03-11T01:13:02.944Z,4.80
2023-03-11T01:15:34.112Z,4.60
2023-03-11T01:18:02.264Z,4.73
2023-03-11T01:20:34.144Z,5.63
2023-03-11T01:23:01.750Z,5.20
2023-03-11T01:25:29.863Z,5.83
2023-03-11T01:27:59.548Z,5.10
2023-03-11T01:30:30.366Z,5.60
2023-03-11T01:32:58.611Z,5.97
2023-03-11T01:35:30.849Z,4.40
2023-03-11T01:37:59.335Z,4.27
2023-03-11T01:40:40.379Z,5.10
2023-03-11T01:43:44.744Z,5.07
2023-03-11T01:46:54.187Z,5.93
2023-03-11T01:49:26.061Z,5.20
2023-03-11T01:52:08.038Z,5.53
2023-03-11T01:54:42.485Z,5.57
2023-03-11T01:57:13.583Z,5.93
2023-03-11T01:59:47.724Z,5.63
2023-03-11T02:02:21.773Z,5.50
2023-03-11T02:04:50.944Z,5.27
2023-03-11T02:07:18.870Z,6.00
2023-03-11T02:09:48.761Z,5.27
2023-03-11T02:12:16.857Z,6.00
2023-03-11T02:14:49.111Z,6.80
2023-03-11T02:17:17.069Z,6.70
2023-03-11T02:20:05.946Z,7.33
2023-03-11T02:22:34.752Z,6.73
2023-03-11T02:25:30.520Z,7.27
2023-03-11T02:27:59.977Z,7.30
2023-03-11T02:30:29.567Z,6.83
2023-03-11T02:32:57.531Z,8.03
2023-03-11T02:35:25.891Z,7.40
2023-03-11T02:37:55.659Z,6.70
2023-03-11T02:40:23.780Z,9.47
2023-03-11T02:42:58.195Z,7.10
2023-03-11T02:45:27.444Z,7.20
2023-03-11T02:47:58.283Z,7.10
2023-03-11T02:50:28.548Z,7.20
2023-03-11T02:52:56.892Z,8.47
2023-03-11T02:55:24.576Z,7.17
2023-03-11T02:57:52.058Z,8.27
2023-03-11T03:00:23.130Z,7.30
2023-03-11T03:02:57.032Z,7.00
2023-03-11T03:05:27.004Z,8.00
2023-03-11T03:07:54.817Z,7.37
2023-03-11T03:10:23.983Z,6.93
2023-03-11T03:12:51.672Z,7.80
2023-03-11T03:15:19.224Z,6.30
2023-03-11T03:17:47.084Z,7.90
2023-03-11T03:20:15.091Z,8.87
2023-03-11T03:22:48.741Z,7.30
2023-03-11T03:25:18.649Z,8.00
2023-03-11T03:27:46.848Z,8.27
2023-03-11T03:30:15.304Z,7.93
2023-03-11T03:32:43.807Z,8.83
2023-03-11T03:35:14.351Z,8.57
2023-03-11T03:38:01.717Z,9.00
2023-03-11T03:40:29.658Z,7.87
2023-03-11T03:42:59.573Z,8.67
2023-03-11T03:45:28.546Z,8.27
2023-03-11T03:47:56.029Z,8.47
2023-03-11T03:50:25.585Z,8.37
2023-03-11T03:52:55.117Z,8.50
2023-03-11T03:55:24.000Z,9.03
2023-03-11T03:57:52.398Z,8.70
2023-03-11T04:00:22.274Z,8.87
2023-03-11T04:02:57.043Z,9.27
2023-03-11T04:05:41.649Z,8.87
2023-03-11T04:08:09.404Z,9.93
2023-03-11T04:10:36.864Z,12.20
2023-03-11T04:13:05.064Z,12.03
2023-03-11T04:15:33.200Z,12.87
2023-03-11T04:18:00.819Z,11.33
2023-03-11T04:20:28.394Z,14.00
2023-03-11T04:22:56.021Z,12.30
2023-03-11T04:25:25.124Z,13.50
2023-03-11T04:27:52.845Z,12.60
2023-03-11T04:30:21.866Z,12.07
2023-03-11T04:32:54.756Z,11.30
2023-03-11T04:35:22.518Z,12.33
2023-03-11T04:37:50.294Z,12.57
2023-03-11T04:40:18.219Z,11.57
2023-03-11T04:42:45.958Z,11.27
2023-03-11T04:45:14.284Z,12.03
2023-03-11T04:47:44.075Z,12.93
2023-03-11T04:50:11.834Z,10.70
2023-03-11T04:52:39.654Z,11.13
2023-03-11T04:55:08.446Z,11.77
2023-03-11T04:57:36.091Z,10.03
2023-03-11T05:00:11.971Z,11.13
2023-03-11T05:02:43.331Z,9.93
2023-03-11T05:05:12.146Z,9.93
2023-03-11T05:07:41.789Z,10.93
2023-03-11T05:10:10.820Z,9.53
2023-03-11T05:12:40.581Z,7.63
2023-03-11T05:15:08.720Z,9.17
2023-03-11T05:17:37.459Z,8.13
2023-03-11T05:20:07.609Z,9.43
2023-03-11T05:22:36.164Z,8.97
2023-03-11T05:25:05.133Z,9.30
2023-03-11T05:27:33.133Z,7.50
2023-03-11T05:30:00.669Z,7.93
2023-03-11T05:32:31.618Z,9.20
2023-03-11T05:34:59.305Z,9.20
2023-03-11T05:37:27.498Z,11.00
2023-03-11T05:39:56.622Z,9.13
2023-03-11T05:42:24.331Z,9.17
2023-03-11T05:44:54.638Z,8.30
2023-03-11T05:47:24.142Z,9.47
2023-03-11T05:49:51.697Z,9.60
2023-03-11T05:52:20.735Z,9.10
2023-03-11T05:54:52.626Z,8.60
2023-03-11T05:57:24.492Z,8.63
2023-03-11T05:59:52.004Z,8.43
2023-03-11T06:02:21.246Z,8.67
2023-03-11T06:04:49.671Z,8.53
2023-03-11T06:07:17.600Z,9.37
2023-03-11T06:09:50.668Z,8.93
2023-03-11T06:12:19.571Z,8.03
2023-03-11T06:14:59.506Z,9.13
2023-03-11T06:17:30.712Z,8.43
2023-03-11T06:19:58.706Z,9.83
2023-03-11T06:22:26.489Z,9.77
2023-03-11T06:24:53.987Z,8.60
2023-03-11T06:27:22.343Z,7.70
2023-03-11T06:29:54.609Z,10.33
2023-03-11T06:32:24.541Z,8.17
2023-03-11T06:34:53.085Z,8.00
2023-03-11T06:37:23.750Z,8.83
2023-03-11T06:39:54.673Z,7.57
2023-03-11T06:42:24.521Z,7.83
2023-03-11T06:44:54.456Z,8.40
2023-03-11T06:47:22.356Z,7.57
2023-03-11T06:49:51.569Z,8.67
2023-03-11T06:52:19.640Z,8.77
2023-03-11T06:54:47.273Z,7.60
2023-03-11T06:57:17.235Z,10.27
2023-03-11T06:59:47.435Z,9.13
2023-03-11T07:02:17.490Z,7.77
2023-03-11T07:04:45.238Z,7.70
2023-03-11T07:07:13.008Z,7.20
2023-03-11T07:09:40.485Z,9.40
2023-03-11T07:12:10.366Z,7.20
2023-03-11T07:14:39.235Z,8.10
2023-03-11T07:17:06.763Z,6.30
2023-03-11T07:19:43.988Z,6.72
2023-03-11T07:22:11.563Z,6.87
2023-03-11T07:24:39.019Z,6.90
2023-03-11T07:27:06.674Z,7.23
2023-03-11T07:29:35.209Z,6.87
2023-03-11T07:32:02.836Z,6.33
2023-03-11T07:34:31.542Z,6.30
2023-03-11T07:36:59.098Z,5.90
2023-03-11T07:39:26.683Z,6.17
2023-03-11T07:41:54.145Z,6.53
2023-03-11T07:44:21.775Z,6.17
2023-03-11T07:46:49.242Z,6.73
2023-03-11T07:49:17.086Z,6.00
2023-03-11T07:51:44.940Z,6.30
2023-03-11T07:54:13.383Z,6.77
2023-03-11T07:56:41.560Z,6.30
2023-03-11T07:59:09.051Z,5.83
2023-03-11T08:01:41.457Z,6.20
2023-03-11T08:04:14.176Z,7.03
2023-03-11T08:06:44.509Z,5.53
2023-03-11T08:09:12.627Z,5.53
2023-03-11T08:11:40.160Z,5.50
2023-03-11T08:14:08.091Z,5.80
2023-03-11T08:16:35.614Z,6.03
2023-03-11T08:19:03.408Z,6.07
2023-03-11T08:21:32.429Z,6.40
2023-03-11T08:24:02.188Z,5.30
2023-03-11T08:26:32.001Z,4.97
2023-03-11T08:28:59.835Z,5.37
2023-03-11T08:31:29.998Z,5.37
2023-03-11T08:34:03.545Z,5.33
2023-03-11T08:36:32.136Z,5.93
2023-03-11T08:39:01.301Z,5.40
2023-03-11T08:41:29.015Z,5.00
2023-03-11T08:43:56.975Z,5.27
2023-03-11T08:46:29.200Z,5.20
2023-03-11T08:49:00.873Z,5.13
2023-03-11T08:51:30.972Z,5.27
2023-03-11T08:53:59.137Z,5.03
2023-03-11T08:56:26.956Z,4.77
2023-03-11T08:58:54.692Z,5.30
2023-03-11T09:01:23.826Z,5.63
2023-03-11T09:03:51.894Z,6.17
2023-03-11T09:06:19.849Z,4.93
2023-03-11T09:08:48.593Z,4.97
2023-03-11T09:11:18.574Z,5.10
2023-03-11T09:13:46.128Z,5.40
2023-03-11T09:16:23.881Z,5.23
2023-03-11T09:18:51.612Z,5.80
2023-03-11T09:21:19.586Z,10.17
2023-03-11T09:23:50.547Z,5.47
2023-03-11T09:26:18.149Z,6.00
2023-03-11T09:28:49.154Z,5.87
2023-03-11T09:31:18.234Z,5.23
2023-03-11T09:33:50.179Z,5.27
2023-03-11T09:36:20.364Z,5.00
2023-03-11T09:38:48.872Z,5.40
2023-03-11T09:41:57.463Z,5.63
2023-03-11T09:47:42.088Z,5.13
2023-03-11T09:50:41.724Z,4.63
2023-03-11T09:53:22.032Z,4.50
2023-03-11T09:55:59.345Z,4.47
2023-03-11T10:01:19.652Z,4.77
2023-03-11T10:03:48.792Z,4.00
2023-03-11T10:06:23.822Z,4.37
2023-03-11T10:09:12.602Z,4.50
2023-03-11T10:12:16.392Z,4.00
2023-03-11T10:15:09.489Z,3.97
2023-03-11T10:17:36.939Z,4.90
2023-03-11T10:20:15.562Z,4.63
2023-03-11T10:23:19.587Z,7.47
2023-03-11T10:25:58.933Z,5.60
2023-03-11T10:28:53.375Z,5.53
2023-03-11T10:31:38.268Z,4.80
2023-03-11T10:34:26.662Z,4.47
2023-03-11T10:37:03.990Z,5.07
2023-03-11T10:39:33.503Z,4.15
2023-03-11T10:42:05.327Z,4.80
2023-03-11T10:44:38.336Z,4.57
2023-03-11T10:47:07.424Z,4.90
2023-03-11T10:49:34.981Z,4.97
2023-03-11T10:52:04.169Z,4.67
2023-03-11T10:54:35.884Z,4.67
2023-03-11T10:57:06.640Z,4.33
2023-03-11T10:59:46.733Z,5.23
2023-03-11T11:02:42.687Z,5.50
2023-03-11T11:05:22.901Z,5.23
2023-03-11T11:08:06.639Z,6.07
2023-03-11T11:10:36.516Z,5.33
2023-03-11T11:13:12.986Z,5.37
2023-03-11T11:15:51.326Z,6.43
2023-03-11T11:18:21.400Z,7.07
2023-03-11T11:21:01.021Z,5.37
2023-03-11T11:23:34.715Z,6.03
2023-03-11T11:26:06.733Z,5.70
2023-03-11T11:28:35.188Z,6.03
2023-03-11T11:31:06.277Z,6.93
2023-03-11T11:33:40.473Z,6.10
2023-03-11T11:36:15.412Z,6.30
2023-03-11T11:38:43.345Z,6.30
2023-03-11T11:41:17.106Z,6.70
2023-03-11T11:43:55.467Z,7.17
2023-03-11T11:46:46.285Z,7.37
2023-03-11T11:49:16.904Z,6.50
2023-03-11T11:51:47.210Z,7.40
2023-03-11T11:54:15.462Z,6.03
2023-03-11T11:56:43.614Z,6.07
2023-03-11T11:59:19.044Z,6.70
2023-03-11T12:02:05.153Z,6.67
2023-03-11T12:04:43.691Z,7.27
2023-03-11T12:07:11.447Z,6.77
2023-03-11T12:10:01.970Z,6.27
2023-03-11T12:13:11.124Z,6.97
2023-03-11T12:15:44.343Z,6.47
2023-03-11T12:18:20.019Z,6.50
2023-03-11T12:20:57.515Z,7.00
2023-03-11T12:26:20.280Z,5.60
2023-03-11T12:28:53.503Z,6.07
2023-03-11T12:31:23.467Z,6.40
2023-03-11T12:33:59.188Z,5.97
2023-03-11T12:36:34.114Z,6.80
2023-03-11T12:39:06.135Z,6.20
2023-03-11T12:41:40.188Z,7.23
2023-03-11T12:44:29.029Z,6.47
2023-03-11T12:46:59.609Z,7.40
2023-03-11T12:49:36.178Z,7.20
2023-03-11T12:52:18.203Z,6.20
2023-03-11T12:54:50.234Z,6.90
2023-03-11T12:57:18.629Z,7.23
2023-03-11T13:00:08.240Z,5.87
2023-03-11T13:02:56.701Z,7.00
2023-03-11T13:06:02.476Z,7.20
2023-03-11T13:08:50.495Z,8.20
2023-03-11T13:11:33.005Z,6.25
2023-03-11T13:14:18.273Z,5.80
2023-03-11T13:16:46.987Z,6.40
2023-03-11T13:19:26.498Z,5.93
2023-03-11T13:21:55.670Z,8.70
2023-03-11T13:24:25.920Z,8.57
2023-03-11T13:26:56.614Z,6.70
2023-03-11T13:29:54.960Z,6.10
2023-03-11T13:32:58.630Z,6.40
2023-03-11T13:35:35.522Z,6.30
2023-03-11T13:38:44.342Z,6.35
2023-03-11T13:41:21.263Z,8.68
2023-03-11T13:43:52.320Z,5.43
2023-03-11T13:46:32.766Z,4.73
2023-03-11T13:49:08.393Z,5.33
2023-03-11T13:51:41.222Z,5.27
2023-03-11T13:54:30.024Z,6.20
2023-03-11T13:57:00.921Z,6.00
2023-03-11T13:59:35.054Z,6.10
2023-03-11T14:02:08.468Z,5.87
2023-03-11T14:04:40.138Z,6.30
2023-03-11T14:07:26.011Z,6.23
2023-03-11T14:10:12.340Z,5.90
2023-03-11T14:12:40.061Z,7.20
2023-03-11T14:15:09.369Z,6.70
2023-03-11T14:17:36.995Z,16.40
2023-03-11T14:20:12.159Z,8.00
2023-03-11T14:22:39.769Z,6.63
2023-03-11T14:25:16.073Z,6.30
2023-03-11T14:27:54.354Z,7.23
2023-03-11T14:30:27.629Z,7.00
2023-03-11T14:33:04.452Z,7.00
2023-03-11T14:35:34.069Z,7.35
2023-03-11T14:38:01.802Z,8.97
2023-03-11T14:40:37.851Z,7.90
2023-03-11T14:43:08.260Z,8.03
2023-03-11T14:45:38.286Z,7.63
2023-03-11T14:48:15.048Z,7.30
2023-03-11T14:50:45.123Z,7.53
2023-03-11T14:53:14.911Z,6.73
2023-03-11T14:55:51.133Z,6.23
2023-03-11T14:58:34.754Z,6.83
2023-03-11T15:01:05.919Z,6.70
2023-03-11T15:03:38.194Z,6.60
2023-03-11T15:06:18.578Z,7.40
2023-03-11T15:08:49.797Z,6.53
2023-03-11T15:11:17.422Z,6.77
2023-03-11T15:13:50.915Z,6.23
2023-03-11T15:16:33.696Z,6.03
2023-03-11T15:19:21.128Z,6.27
2023-03-11T15:21:50.871Z,4.93
2023-03-11T15:24:21.258Z,6.00
2023-03-11T15:26:58.311Z,6.53
2023-03-11T15:29:27.911Z,6.20
2023-03-11T15:31:57.344Z,13.00
2023-03-11T15:34:26.768Z,8.57
2023-03-11T15:36:58.034Z,7.63
2023-03-11T15:39:47.732Z,6.90
2023-03-11T15:42:20.233Z,5.97
2023-03-11T15:45:09.381Z,6.43
2023-03-11T15:47:37.041Z,6.97
2023-03-11T15:50:24.824Z,5.93
2023-03-11T15:52:56.434Z,6.13
2023-03-11T15:55:26.500Z,6.90
2023-03-11T15:58:08.053Z,6.97
2023-03-11T16:00:36.974Z,6.30
2023-03-11T16:03:06.219Z,6.73
2023-03-11T16:05:33.887Z,6.57
2023-03-11T16:08:01.904Z,6.90
2023-03-11T16:10:29.581Z,6.90
2023-03-11T16:12:57.240Z,7.50
2023-03-11T16:15:29.689Z,10.63
2023-03-11T16:18:02.440Z,7.17
2023-03-11T16:20:36.465Z,7.73
2023-03-11T16:23:04.320Z,7.07
2023-03-11T16:25:36.376Z,7.40
2023-03-11T16:28:04.782Z,6.13
2023-03-11T16:30:34.568Z,6.83
2023-03-11T16:33:05.301Z,7.67
2023-03-11T16:35:33.964Z,6.87
2023-03-11T16:38:02.302Z,8.13
2023-03-11T16:40:30.085Z,7.40
2023-03-11T16:43:05.801Z,7.77
2023-03-11T16:45:33.676Z,7.33
2023-03-11T16:48:01.308Z,7.17
2023-03-11T16:50:28.977Z,7.23
2023-03-11T16:52:57.507Z,6.87
2023-03-11T16:55:26.706Z,6.63
2023-03-11T16:57:56.364Z,6.70
2023-03-11T17:00:27.937Z,7.07
2023-03-11T17:02:55.431Z,8.40
2023-03-11T17:05:23.266Z,7.03
2023-03-11T17:08:01.142Z,7.13
2023-03-11T17:10:29.080Z,6.43
2023-03-11T17:12:56.898Z,6.13
2023-03-11T17:15:24.483Z,6.80
2023-03-11T17:17:52.006Z,6.80
2023-03-11T17:20:21.638Z,6.90
2023-03-11T17:22:49.665Z,6.00
2023-03-11T17:25:17.563Z,6.30
2023-03-11T17:27:45.629Z,6.53
2023-03-11T17:30:19.432Z,6.87
2023-03-11T17:32:54.126Z,6.60
2023-03-11T17:35:22.058Z,7.50
2023-03-11T17:37:49.728Z,6.03
2023-03-11T17:40:17.635Z,7.07
2023-03-11T17:42:45.483Z,6.40
2023-03-11T17:45:13.461Z,7.13
2023-03-11T17:47:41.411Z,7.10
2023-03-11T17:50:09.829Z,7.03
2023-03-11T17:52:37.518Z,6.90
2023-03-11T17:55:05.461Z,6.77
2023-03-11T17:57:44.436Z,7.63
2023-03-11T18:00:14.988Z,7.03
2023-03-11T18:02:43.433Z,7.30
2023-03-11T18:05:10.947Z,7.60
2023-03-11T18:07:42.922Z,7.10
2023-03-11T18:10:12.633Z,9.53
2023-03-11T18:12:45.010Z,7.57
2023-03-11T18:15:18.932Z,7.00
2023-03-11T18:17:47.684Z,7.17
2023-03-11T18:20:17.039Z,7.43
2023-03-11T18:22:46.718Z,6.50
2023-03-11T18:25:14.782Z,7.67
2023-03-11T18:27:42.454Z,8.33
2023-03-11T18:30:11.362Z,8.63
2023-03-11T18:32:38.973Z,7.27
2023-03-11T18:35:06.993Z,7.80
2023-03-11T18:37:34.678Z,7.83
2023-03-11T18:40:03.683Z,7.23
2023-03-11T18:42:32.329Z,8.37
2023-03-11T18:44:59.858Z,8.20
2023-03-11T18:47:35.608Z,8.30
2023-03-11T18:50:04.216Z,8.80
2023-03-11T18:52:34.274Z,15.33
2023-03-11T18:55:01.908Z,9.90
2023-03-11T18:57:30.942Z,8.43
2023-03-11T18:59:58.573Z,8.80
2023-03-11T19:02:26.269Z,8.77
2023-03-11T19:04:54.064Z,8.77
2023-03-11T19:07:22.757Z,9.77
2023-03-11T19:09:50.413Z,8.77
2023-03-11T19:12:18.191Z,8.67
2023-03-11T19:14:45.802Z,8.97
2023-03-11T19:17:16.475Z,8.30
2023-03-11T19:19:44.245Z,9.43
2023-03-11T19:22:11.722Z,8.33
2023-03-11T19:24:39.513Z,8.93
2023-03-11T19:27:07.022Z,9.67
2023-03-11T19:29:34.679Z,10.20
2023-03-11T19:32:03.580Z,9.87
2023-03-11T19:34:31.614Z,8.37
2023-03-11T19:36:59.365Z,10.10
2023-03-11T19:39:26.826Z,9.40
2023-03-11T19:41:55.578Z,19.63
2023-03-11T19:44:23.796Z,11.43
2023-03-11T19:46:51.541Z,9.03
2023-03-11T19:49:19.127Z,8.77
2023-03-11T19:51:50.457Z,9.13
2023-03-11T19:54:19.033Z,9.50
2023-03-11T19:56:46.807Z,9.23
2023-03-11T19:59:14.670Z,8.77
2023-03-11T20:01:42.991Z,8.77
2023-03-11T20:04:11.275Z,10.63
2023-03-11T20:06:39.152Z,9.50
2023-03-11T20:09:07.292Z,9.23
2023-03-11T20:11:38.834Z,9.20
2023-03-11T20:14:07.105Z,9.20
2023-03-11T20:16:34.826Z,9.17
2023-03-11T20:19:02.510Z,8.73
2023-03-11T20:21:30.232Z,8.40
2023-03-11T20:23:58.360Z,8.47
2023-03-11T20:26:27.128Z,8.50
2023-03-11T20:28:57.909Z,9.17
2023-03-11T20:31:28.547Z,8.87
2023-03-11T20:33:58.426Z,8.37
2023-03-11T20:36:29.625Z,7.53
2023-03-11T20:38:57.685Z,8.53
2023-03-11T20:41:26.552Z,7.77
2023-03-11T20:43:56.227Z,9.33
2023-03-11T20:46:24.273Z,7.97
2023-03-11T20:48:51.972Z,9.63
2023-03-11T20:51:20.961Z,8.27
2023-03-11T20:53:49.136Z,9.30
2023-03-11T20:56:20.220Z,8.73
2023-03-11T20:58:51.220Z,8.27
2023-03-11T21:01:23.411Z,8.63
2023-03-11T21:03:54.291Z,8.57
2023-03-11T21:06:28.293Z,8.53
2023-03-11T21:08:58.058Z,8.17
2023-03-11T21:11:26.322Z,8.60
2023-03-11T21:13:54.784Z,7.90
2023-03-11T21:16:22.700Z,8.93
2023-03-11T21:18:50.541Z,8.37
2023-03-11T21:21:19.276Z,8.20
2023-03-11T21:23:48.025Z,9.53
2023-03-11T21:26:17.529Z,9.27
2023-03-11T21:28:47.067Z,8.17
2023-03-11T21:31:18.161Z,7.60
2023-03-11T21:33:48.531Z,7.80
2023-03-11T21:36:16.716Z,7.50
2023-03-11T21:38:44.565Z,8.03
2023-03-11T21:41:15.583Z,7.90
2023-03-11T21:43:44.222Z,7.80
2023-03-11T21:46:15.860Z,7.53
2023-03-11T21:48:44.305Z,8.17
2023-03-11T21:51:15.581Z,8.90
2023-03-11T21:53:43.487Z,8.20
2023-03-11T21:56:11.239Z,8.93
2023-03-11T21:58:39.507Z,10.47
2023-03-11T22:01:11.164Z,9.50
2023-03-11T22:03:39.301Z,9.60
2023-03-11T22:06:10.231Z,8.57
2023-03-11T22:08:42.462Z,8.97
2023-03-11T22:11:19.063Z,8.90
2023-03-11T22:13:47.491Z,8.37
2023-03-11T22:16:17.980Z,7.93
2023-03-11T22:18:46.698Z,7.43
2023-03-11T22:21:16.458Z,8.00
2023-03-11T22:23:45.120Z,8.37
2023-03-11T22:26:12.935Z,7.67
2023-03-11T22:28:40.742Z,7.90
2023-03-11T22:31:11.045Z,7.00
2023-03-11T22:33:39.000Z,7.53
2023-03-11T22:36:07.862Z,7.37
2023-03-11T22:38:37.087Z,7.07
2023-03-11T22:41:08.352Z,6.83
2023-03-11T22:43:36.854Z,6.67
2023-03-11T22:46:06.512Z,6.17
2023-03-11T22:48:34.955Z,6.70
2023-03-11T22:51:02.660Z,5.37
2023-03-11T22:53:30.458Z,6.83
2023-03-11T22:55:58.076Z,6.33
2023-03-11T22:58:25.701Z,5.43
2023-03-11T23:00:53.123Z,4.77
2023-03-11T23:03:20.633Z,4.70
2023-03-11T23:05:48.224Z,5.20
2023-03-11T23:08:16.607Z,5.80
2023-03-11T23:10:46.653Z,5.13
2023-03-11T23:13:14.220Z,5.23
2023-03-11T23:15:44.263Z,5.33
2023-03-11T23:18:13.026Z,4.57
2023-03-11T23:20:42.286Z,5.27
2023-03-11T23:23:10.727Z,5.17
2023-03-11T23:25:39.958Z,5.20
2023-03-11T23:28:07.763Z,5.10
2023-03-11T23:30:35.602Z,5.00
2023-03-11T23:33:03.464Z,4.97
2023-03-11T23:35:31.793Z,4.70
2023-03-11T23:38:00.557Z,5.10
2023-03-11T23:40:28.266Z,4.80
2023-03-11T23:42:55.892Z,4.63
2023-03-11T23:45:23.380Z,4.60
2023-03-11T23:47:50.890Z,4.87
2023-03-11T23:50:18.578Z,4.13
2023-03-11T23:52:46.153Z,5.00
2023-03-11T23:55:13.717Z,5.07
2023-03-11T23:57:48.663Z,4.20
